createdAt,value
2023-03-13T00:01:36.624Z,9.47
2023-03-13T00:04:04.085Z,9.58
2023-03-13T00:06:34.362Z,9.65
2023-03-13T00:09:03.202Z,9.64
2023-03-13T00:11:30.587Z,9.56
2023-03-13T00:13:59.763Z,9.60
2023-03-13T00:16:27.999Z,9.62
2023-03-13T00:18:57.147Z,9.54
2023-03-13T00:21:27.464Z,9.44
2023-03-13T00:23:55.530Z,9.50
2023-03-13T00:26:26.028Z,9.43
2023-03-13T00:28:54.203Z,9.46
2023-03-13T00:31:30.015Z,9.58
2023-03-13T00:34:00.235Z,9.64
2023-03-13T00:36:30.664Z,9.49
2023-03-13T00:38:59.230Z,9.33
2023-03-13T00:41:29.868Z,9.28
2023-03-13T00:43:57.775Z,8.89
2023-03-13T00:46:27.965Z,8.78
2023-03-13T00:48:56.201Z,8.92
2023-03-13T00:51:27.450Z,9.21
2023-03-13T00:53:57.405Z,9.16
2023-03-13T00:56:24.977Z,9.34
2023-03-13T00:58:53.005Z,9.43
2023-03-13T01:01:26.339Z,9.38
2023-03-13T01:04:01.447Z,9.40
2023-03-13T01:06:33.205Z,9.45
2023-03-13T01:09:01.600Z,9.51
2023-03-13T01:11:31.753Z,9.50
2023-03-13T01:14:02.002Z,9.54
2023-03-13T01:16:32.114Z,9.71
2023-03-13T01:19:01.743Z,9.81
2023-03-13T01:21:29.903Z,9.75
2023-03-13T01:23:58.167Z,9.72
2023-03-13T01:26:26.373Z,9.75
2023-03-13T01:28:55.072Z,9.78
2023-03-13T01:31:29.084Z,9.50
2023-03-13T01:34:02.405Z,9.41
2023-03-13T01:36:33.042Z,9.60
2023-03-13T01:39:01.100Z,9.52
2023-03-13T01:41:30.953Z,9.57
2023-03-13T01:43:59.098Z,9.47
2023-03-13T01:46:32.289Z,9.37
2023-03-13T01:49:24.291Z,9.59
2023-03-13T01:52:24.508Z,9.67
2023-03-13T01:55:09.192Z,9.59
2023-03-13T01:57:44.953Z,9.62
2023-03-13T02:00:29.721Z,9.75
2023-03-13T02:03:02.596Z,9.65
2023-03-13T02:05:31.532Z,9.65
2023-03-13T02:08:26.618Z,9.62
2023-03-13T02:11:22.670Z,9.47
2023-03-13T02:13:50.880Z,9.38
2023-03-13T02:16:19.406Z,9.41
2023-03-13T02:18:49.758Z,9.41
2023-03-13T02:21:30.762Z,9.39
2023-03-13T02:24:23.900Z,9.54
2023-03-13T02:26:51.467Z,9.47
2023-03-13T02:29:18.796Z,9.50
2023-03-13T02:31:47.963Z,9.50
2023-03-13T02:34:20.454Z,9.33
2023-03-13T02:36:48.932Z,9.35
2023-03-13T02:39:20.464Z,9.28
2023-03-13T02:41:48.708Z,9.25
2023-03-13T02:44:16.048Z,9.27
2023-03-13T02:46:46.206Z,9.37
2023-03-13T02:49:34.877Z,9.20
2023-03-13T02:52:24.619Z,9.27
2023-03-13T02:54:58.057Z,9.25
2023-03-13T02:57:25.491Z,9.43
2023-03-13T02:59:53.264Z,9.42
2023-03-13T03:02:20.754Z,9.36
2023-03-13T03:04:48.201Z,9.30
2023-03-13T03:07:15.592Z,9.33
2023-03-13T03:09:43.285Z,9.49
2023-03-13T03:12:16.751Z,9.65
2023-03-13T03:14:44.100Z,9.72
2023-03-13T03:17:11.679Z,9.78
2023-03-13T03:19:39.092Z,9.75
2023-03-13T03:22:06.593Z,9.71
2023-03-13T03:24:34.065Z,9.42
2023-03-13T03:27:05.042Z,9.44
2023-03-13T03:29:38.603Z,9.36
2023-03-13T03:32:06.511Z,9.32
2023-03-13T03:34:33.804Z,9.56
2023-03-13T03:37:01.204Z,9.47
2023-03-13T03:39:29.585Z,9.54
2023-03-13T03:41:56.989Z,9.61
2023-03-13T03:44:24.877Z,9.52
2023-03-13T03:46:58.244Z,9.56
2023-03-13T03:49:27.661Z,9.44
2023-03-13T03:51:55.486Z,9.36
2023-03-13T03:54:29.482Z,9.38
2023-03-13T03:56:57.768Z,9.28
2023-03-13T03:59:25.380Z,9.38
2023-03-13T04:01:57.819Z,9.40
2023-03-13T04:04:27.727Z,9.39
2023-03-13T04:07:02.160Z,9.27
2023-03-13T04:09:32.184Z,9.32
2023-03-13T04:12:01.035Z,9.44
2023-03-13T04:14:29.249Z,9.51
2023-03-13T04:16:58.627Z,9.56
2023-03-13T04:19:25.977Z,9.52
2023-03-13T04:21:53.650Z,9.60
2023-03-13T04:24:20.993Z,9.72
2023-03-13T04:26:48.374Z,9.63
2023-03-13T04:29:16.017Z,9.71
2023-03-13T04:31:51.200Z,9.71
2023-03-13T04:34:30.657Z,9.73
2023-03-13T04:37:10.756Z,9.70
2023-03-13T04:39:41.052Z,9.74
2023-03-13T04:42:36.209Z,9.82
2023-03-13T04:45:14.227Z,9.79
2023-03-13T04:48:00.661Z,9.67
2023-03-13T04:50:40.399Z,9.71
2023-03-13T04:53:28.029Z,9.74
2023-03-13T04:56:04.306Z,9.78
2023-03-13T04:58:49.364Z,9.90
2023-03-13T05:01:35.776Z,9.91
2023-03-13T05:04:26.003Z,9.94
2023-03-13T05:07:03.996Z,9.90
2023-03-13T05:09:49.997Z,9.85
2023-03-13T05:12:36.169Z,9.86
2023-03-13T05:15:30.102Z,9.86
2023-03-13T05:18:15.945Z,9.92
2023-03-13T05:20:49.625Z,9.93
2023-03-13T05:23:33.711Z,9.90
2023-03-13T05:26:25.210Z,9.88
2023-03-13T05:29:04.760Z,9.85
2023-03-13T05:31:50.861Z,9.82
2023-03-13T05:34:38.451Z,9.79
2023-03-13T05:37:24.185Z,9.74
2023-03-13T05:40:02.852Z,9.79
2023-03-13T05:42:59.708Z,9.72
2023-03-13T05:45:53.167Z,9.63
2023-03-13T05:48:32.076Z,9.55
2023-03-13T05:51:05.958Z,9.55
2023-03-13T05:53:59.076Z,9.45
2023-03-13T05:56:37.609Z,9.29
2023-03-13T05:59:33.940Z,9.42
2023-03-13T06:02:30.070Z,9.48
2023-03-13T06:04:58.643Z,9.53
2023-03-13T06:07:26.091Z,9.53
2023-03-13T06:09:53.791Z,9.53
2023-03-13T06:12:21.022Z,9.56
2023-03-13T06:14:48.350Z,9.66
2023-03-13T06:17:15.799Z,9.77
2023-03-13T06:19:43.302Z,9.71
2023-03-13T06:22:10.585Z,9.83
2023-03-13T06:24:37.913Z,9.85
2023-03-13T06:27:05.240Z,9.83
2023-03-13T06:29:32.732Z,9.83
2023-03-13T06:32:00.195Z,9.93
2023-03-13T06:34:27.620Z,9.88
2023-03-13T06:36:55.009Z,9.97
2023-03-13T06:39:24.656Z,9.98
2023-03-13T06:41:51.955Z,10.12
2023-03-13T06:44:19.284Z,10.24
2023-03-13T06:46:46.653Z,10.31
2023-03-13T06:49:14.021Z,10.25
2023-03-13T06:51:41.346Z,10.22
2023-03-13T06:54:08.688Z,10.26
2023-03-13T06:56:36.061Z,10.30
2023-03-13T06:59:03.612Z,10.31
2023-03-13T07:01:31.101Z,10.27
2023-03-13T07:03:59.772Z,10.41
2023-03-13T07:06:27.203Z,10.39
2023-03-13T07:08:54.542Z,10.47
2023-03-13T07:11:21.949Z,10.50
2023-03-13T07:13:49.426Z,10.62
2023-03-13T07:16:16.805Z,10.74
2023-03-13T07:18:47.299Z,10.71
2023-03-13T07:21:15.036Z,10.80
2023-03-13T07:23:42.542Z,10.83
2023-03-13T07:26:15.806Z,11.00
2023-03-13T07:28:43.398Z,11.03
2023-03-13T07:31:19.918Z,11.02
2023-03-13T07:33:48.039Z,11.14
2023-03-13T07:36:15.981Z,11.21
2023-03-13T07:38:46.272Z,11.19
2023-03-13T07:41:13.832Z,11.42
2023-03-13T07:43:41.637Z,11.44
2023-03-13T07:46:15.226Z,11.53
2023-03-13T07:48:43.259Z,11.41
2023-03-13T07:51:14.706Z,11.37
2023-03-13T07:53:42.816Z,11.60
2023-03-13T07:56:12.869Z,11.68
2023-03-13T07:58:42.291Z,11.87
2023-03-13T08:01:14.655Z,11.96
2023-03-13T08:03:42.337Z,11.94
2023-03-13T08:06:12.540Z,12.04
2023-03-13T08:08:43.211Z,12.21
2023-03-13T08:11:13.614Z,12.10
2023-03-13T08:13:43.304Z,11.92
2023-03-13T08:16:17.038Z,12.27
2023-03-13T08:18:46.858Z,12.14
2023-03-13T08:21:25.374Z,11.97
2023-03-13T08:23:55.013Z,12.24
2023-03-13T08:26:26.751Z,12.42
2023-03-13T08:28:56.807Z,12.70
2023-03-13T08:31:28.459Z,13.21
2023-03-13T08:33:56.153Z,13.52
2023-03-13T08:36:27.081Z,13.85
2023-03-13T08:38:59.224Z,14.18
2023-03-13T08:41:29.181Z,14.45
2023-03-13T08:43:57.690Z,14.71
2023-03-13T08:46:25.790Z,14.73
2023-03-13T08:48:55.067Z,15.07
2023-03-13T08:51:25.392Z,15.24
2023-03-13T08:53:53.795Z,15.14
2023-03-13T08:56:23.606Z,14.86
2023-03-13T08:58:52.617Z,14.36
2023-03-13T09:01:21.441Z,14.43
2023-03-13T09:03:48.933Z,14.17
2023-03-13T09:06:16.248Z,14.38
2023-03-13T09:08:44.794Z,14.78
2023-03-13T09:11:19.355Z,15.25
2023-03-13T09:13:49.079Z,15.60
2023-03-13T09:16:22.433Z,15.89
2023-03-13T09:18:51.528Z,16.81
2023-03-13T09:21:27.796Z,16.46
2023-03-13T09:23:55.400Z,16.33
2023-03-13T09:26:23.714Z,16.63
2023-03-13T09:28:52.190Z,17.16
2023-03-13T09:31:30.612Z,17.78
2023-03-13T09:33:58.268Z,17.81
2023-03-13T09:36:26.330Z,17.55
2023-03-13T09:38:56.486Z,17.39
2023-03-13T09:41:36.514Z,17.17
2023-03-13T09:44:10.217Z,17.48
2023-03-13T09:46:46.450Z,17.37
2023-03-13T09:49:32.643Z,17.49
2023-03-13T09:52:21.625Z,17.69
2023-03-13T09:55:00.963Z,17.10
2023-03-13T09:57:42.688Z,16.46
2023-03-13T10:00:16.878Z,16.42
2023-03-13T10:02:47.608Z,16.81
2023-03-13T10:05:21.838Z,16.62
2023-03-13T10:07:49.710Z,16.52
2023-03-13T10:10:37.738Z,16.54
2023-03-13T10:13:32.245Z,16.42
2023-03-13T10:16:07.049Z,16.29
2023-03-13T10:18:34.497Z,16.01
2023-03-13T10:21:16.367Z,16.20
2023-03-13T10:23:52.097Z,16.81
2023-03-13T10:26:24.781Z,17.07
2023-03-13T10:28:52.195Z,16.51
2023-03-13T10:31:33.566Z,16.81
2023-03-13T10:34:08.317Z,16.56
2023-03-13T10:36:49.970Z,16.89
2023-03-13T10:39:19.608Z,16.36
2023-03-13T10:41:48.967Z,15.97
2023-03-13T10:44:21.969Z,15.77
2023-03-13T10:46:51.113Z,15.60
2023-03-13T10:49:21.071Z,15.48
2023-03-13T10:51:54.634Z,15.62
2023-03-13T10:54:35.224Z,15.82
2023-03-13T10:57:29.831Z,15.75
2023-03-13T10:59:58.187Z,15.60
2023-03-13T11:02:32.310Z,15.61
2023-03-13T11:04:59.937Z,15.24
2023-03-13T11:07:34.201Z,15.52
2023-03-13T11:10:03.004Z,15.39
2023-03-13T11:12:35.019Z,16.02
2023-03-13T11:15:06.543Z,16.47
2023-03-13T11:17:39.587Z,17.33
2023-03-13T11:20:12.652Z,17.35
2023-03-13T11:22:43.057Z,16.80
2023-03-13T11:25:23.934Z,16.85
2023-03-13T11:27:54.275Z,17.21
2023-03-13T11:30:40.107Z,18.07
2023-03-13T11:33:35.197Z,19.22
2023-03-13T11:36:25.800Z,19.39
2023-03-13T11:39:23.075Z,18.99
2023-03-13T11:42:19.534Z,19.28
2023-03-13T11:45:17.578Z,19.46
2023-03-13T11:47:53.851Z,19.54
2023-03-13T11:50:37.675Z,20.37
2023-03-13T11:53:26.231Z,19.56
2023-03-13T11:55:56.609Z,19.46
2023-03-13T11:58:39.345Z,19.65
2023-03-13T12:01:11.806Z,19.60
2023-03-13T12:03:42.378Z,19.47
2023-03-13T12:06:29.510Z,19.88
2023-03-13T12:09:20.961Z,19.99
2023-03-13T12:12:29.397Z,19.14
2023-03-13T12:15:00.204Z,19.53
2023-03-13T12:17:27.506Z,19.75
2023-03-13T12:20:21.960Z,19.85
2023-03-13T12:23:17.188Z,20.65
2023-03-13T12:25:47.787Z,20.32
2023-03-13T12:28:24.084Z,19.63
2023-03-13T12:31:09.481Z,19.99
2023-03-13T12:33:41.072Z,19.83
2023-03-13T12:36:14.507Z,19.32
2023-03-13T12:38:55.578Z,19.07
2023-03-13T12:41:41.914Z,18.37
2023-03-13T12:44:15.989Z,18.82
2023-03-13T12:47:02.367Z,19.01
2023-03-13T12:50:02.754Z,19.40
2023-03-13T12:52:39.243Z,19.34
2023-03-13T12:55:21.551Z,19.26
2023-03-13T12:58:06.608Z,19.01
2023-03-13T13:00:37.299Z,18.72
2023-03-13T13:03:38.336Z,18.70
2023-03-13T13:06:14.677Z,18.57
2023-03-13T13:08:46.888Z,18.81
2023-03-13T13:11:39.181Z,18.76
2023-03-13T13:14:15.948Z,18.89
2023-03-13T13:16:52.178Z,18.67
2023-03-13T13:19:25.455Z,18.73
2023-03-13T13:22:30.273Z,18.63
2023-03-13T13:24:59.998Z,18.66
2023-03-13T13:27:34.474Z,18.68
2023-03-13T13:30:03.687Z,18.32
2023-03-13T13:32:42.659Z,18.61
2023-03-13T13:35:12.747Z,19.05
2023-03-13T13:37:40.706Z,19.01
2023-03-13T13:40:21.951Z,18.55
2023-03-13T13:42:52.537Z,18.64
2023-03-13T13:45:27.632Z,18.63
2023-03-13T13:48:28.399Z,18.42
2023-03-13T13:51:18.782Z,18.87
2023-03-13T13:53:56.062Z,18.97
2023-03-13T13:56:37.362Z,18.69
2023-03-13T13:59:24.839Z,18.61
2023-03-13T14:02:04.322Z,19.41
2023-03-13T14:04:37.583Z,19.06
2023-03-13T14:07:07.747Z,19.31
2023-03-13T14:10:02.088Z,19.62
2023-03-13T14:12:38.349Z,19.30
2023-03-13T14:15:12.182Z,19.30
2023-03-13T14:17:42.238Z,19.11
2023-03-13T14:20:30.972Z,19.04
2023-03-13T14:23:01.857Z,19.47
2023-03-13T14:25:48.066Z,19.34
2023-03-13T14:28:27.199Z,19.19
2023-03-13T14:30:58.060Z,18.85
2023-03-13T14:33:29.799Z,18.79
2023-03-13T14:35:57.930Z,18.91
2023-03-13T14:38:29.976Z,18.97
2023-03-13T14:40:57.328Z,19.10
2023-03-13T14:43:41.252Z,18.92
2023-03-13T14:46:30.619Z,19.01
2023-03-13T14:49:06.515Z,18.42
2023-03-13T14:51:39.527Z,18.33
2023-03-13T14:54:24.745Z,18.11
2023-03-13T14:57:11.347Z,17.99
2023-03-13T14:59:38.852Z,18.37
2023-03-13T15:02:23.189Z,18.23
2023-03-13T15:04:59.374Z,18.25
2023-03-13T15:07:38.897Z,18.46
2023-03-13T15:10:24.166Z,18.12
2023-03-13T15:12:52.501Z,18.37
2023-03-13T15:15:19.819Z,18.44
2023-03-13T15:17:47.326Z,18.00
2023-03-13T15:20:15.875Z,17.89
2023-03-13T15:22:46.178Z,17.62
2023-03-13T15:25:23.102Z,17.72
2023-03-13T15:27:50.536Z,17.46
2023-03-13T15:30:20.513Z,17.26
2023-03-13T15:32:48.806Z,17.59
2023-03-13T15:35:24.125Z,17.54
2023-03-13T15:37:51.650Z,17.54
2023-03-13T15:40:19.939Z,17.45
2023-03-13T15:42:47.547Z,17.30
2023-03-13T15:45:14.891Z,17.38
2023-03-13T15:47:42.336Z,17.47
2023-03-13T15:50:14.292Z,17.52
2023-03-13T15:52:41.704Z,17.34
2023-03-13T15:55:11.513Z,17.30
2023-03-13T15:57:44.256Z,17.21
2023-03-13T16:00:22.523Z,17.32
2023-03-13T16:02:49.994Z,17.20
2023-03-13T16:05:18.013Z,17.13
2023-03-13T16:07:45.421Z,17.02
2023-03-13T16:10:25.001Z,16.78
2023-03-13T16:12:53.784Z,16.61
2023-03-13T16:15:21.677Z,16.65
2023-03-13T16:17:49.086Z,16.62
2023-03-13T16:20:19.284Z,16.51
2023-03-13T16:22:46.749Z,16.43
2023-03-13T16:25:14.479Z,16.28
2023-03-13T16:27:42.152Z,16.23
2023-03-13T16:30:26.840Z,16.05
2023-03-13T16:32:54.384Z,16.01
2023-03-13T16:35:22.579Z,15.95
2023-03-13T16:37:50.949Z,15.82
2023-03-13T16:40:21.470Z,15.75
2023-03-13T16:42:48.920Z,15.64
2023-03-13T16:45:16.929Z,15.50
2023-03-13T16:47:45.260Z,15.54
2023-03-13T16:50:37.925Z,15.46
2023-03-13T16:53:05.388Z,15.40
2023-03-13T16:55:36.470Z,15.42
2023-03-13T16:58:04.719Z,15.35
2023-03-13T17:00:33.698Z,15.22
2023-03-13T17:03:01.543Z,15.20
2023-03-13T17:05:29.212Z,15.15
2023-03-13T17:07:56.690Z,15.01
2023-03-13T17:10:27.463Z,15.07
2023-03-13T17:12:54.873Z,15.06
2023-03-13T17:15:23.959Z,14.99
2023-03-13T17:17:52.545Z,15.01
2023-03-13T17:20:26.161Z,14.98
2023-03-13T17:22:56.212Z,15.01
2023-03-13T17:25:24.716Z,15.08
2023-03-13T17:27:52.657Z,15.08
2023-03-13T17:30:22.819Z,15.08
2023-03-13T17:32:50.725Z,15.15
2023-03-13T17:35:19.384Z,15.08
2023-03-13T17:37:47.808Z,15.02
2023-03-13T17:40:24.509Z,14.99
2023-03-13T17:42:51.867Z,15.00
2023-03-13T17:45:19.586Z,15.00
2023-03-13T17:47:49.204Z,15.07
2023-03-13T17:50:16.735Z,15.01
2023-03-13T17:52:44.488Z,14.94
2023-03-13T17:55:12.153Z,14.91
2023-03-13T17:57:40.984Z,14.84
2023-03-13T18:00:14.614Z,14.89
2023-03-13T18:02:41.894Z,14.92
2023-03-13T18:05:09.534Z,15.01
2023-03-13T18:07:36.869Z,15.06
2023-03-13T18:10:10.904Z,15.02
2023-03-13T18:12:38.348Z,15.06
2023-03-13T18:15:06.321Z,15.05
2023-03-13T18:17:33.624Z,15.03
2023-03-13T18:20:00.946Z,14.98
2023-03-13T18:22:28.244Z,14.97
2023-03-13T18:24:55.722Z,15.12
2023-03-13T18:27:23.098Z,15.02
2023-03-13T18:29:50.520Z,14.97
2023-03-13T18:32:18.855Z,15.02
2023-03-13T18:34:46.492Z,15.02
2023-03-13T18:37:33.547Z,14.99
2023-03-13T18:40:01.173Z,14.87
2023-03-13T18:42:28.592Z,14.88
2023-03-13T18:44:55.842Z,14.88
2023-03-13T18:47:27.225Z,14.94
2023-03-13T18:49:55.550Z,14.81
2023-03-13T18:52:22.903Z,14.95
2023-03-13T18:54:50.205Z,14.82
2023-03-13T18:57:19.755Z,14.72
2023-03-13T18:59:47.426Z,14.52
2023-03-13T19:02:16.693Z,14.43
2023-03-13T19:04:44.726Z,14.30
2023-03-13T19:07:19.587Z,14.21
2023-03-13T19:09:47.557Z,14.19
2023-03-13T19:12:15.655Z,14.24
2023-03-13T19:14:43.073Z,14.22
2023-03-13T19:17:20.188Z,14.07
2023-03-13T19:19:47.499Z,14.06
2023-03-13T19:22:14.837Z,14.11
2023-03-13T19:24:42.230Z,13.93
2023-03-13T19:27:14.101Z,13.78
2023-03-13T19:29:41.463Z,13.85
2023-03-13T19:32:14.393Z,13.88
2023-03-13T19:34:42.108Z,13.82
2023-03-13T19:37:11.359Z,13.82
2023-03-13T19:39:38.736Z,13.80
2023-03-13T19:42:07.653Z,13.69
2023-03-13T19:44:35.936Z,13.62
2023-03-13T19:47:06.493Z,13.65
2023-03-13T19:49:33.998Z,13.59
2023-03-13T19:52:01.395Z,13.69
2023-03-13T19:54:28.762Z,13.58
2023-03-13T19:56:56.266Z,13.55
2023-03-13T19:59:26.849Z,13.60
2023-03-13T20:01:55.803Z,13.55
2023-03-13T20:04:25.090Z,13.55
2023-03-13T20:06:52.444Z,13.61
2023-03-13T20:09:21.002Z,13.68
2023-03-13T20:11:48.648Z,13.59
2023-03-13T20:14:16.130Z,13.58
2023-03-13T20:16:45.496Z,13.57
2023-03-13T20:19:13.026Z,13.44
2023-03-13T20:21:42.016Z,13.59
2023-03-13T20:24:10.112Z,13.64
2023-03-13T20:26:37.979Z,13.72
2023-03-13T20:29:05.495Z,13.60
2023-03-13T20:31:33.227Z,13.44
2023-03-13T20:34:00.749Z,13.39
2023-03-13T20:36:28.208Z,13.38
2023-03-13T20:38:55.809Z,13.50
2023-03-13T20:41:25.771Z,13.43
2023-03-13T20:43:53.383Z,13.41
2023-03-13T20:46:21.840Z,13.26
2023-03-13T20:48:49.979Z,13.26
2023-03-13T20:51:17.773Z,13.11
2023-03-13T20:53:45.243Z,13.05
2023-03-13T20:56:12.643Z,13.07
2023-03-13T20:58:40.612Z,13.11
2023-03-13T21:01:08.303Z,13.14
2023-03-13T21:03:36.437Z,13.09
2023-03-13T21:06:14.982Z,13.22
2023-03-13T21:08:42.870Z,13.27
2023-03-13T21:11:15.729Z,13.25
2023-03-13T21:13:43.101Z,13.13
2023-03-13T21:16:11.278Z,13.25
2023-03-13T21:18:39.021Z,13.25
2023-03-13T21:21:09.838Z,13.18
2023-03-13T21:23:37.435Z,13.13
2023-03-13T21:26:05.505Z,13.08
2023-03-13T21:28:33.366Z,13.03
2023-03-13T21:31:11.615Z,12.93
2023-03-13T21:33:40.330Z,12.93
2023-03-13T21:36:12.269Z,13.09
2023-03-13T21:38:39.922Z,13.19
2023-03-13T21:41:12.246Z,13.11
2023-03-13T21:43:43.774Z,13.06
2023-03-13T21:46:13.978Z,12.96
2023-03-13T21:48:43.143Z,12.84
2023-03-13T21:51:11.343Z,12.96
2023-03-13T21:53:42.026Z,13.04
2023-03-13T21:56:15.023Z,13.00
2023-03-13T21:58:44.079Z,12.99
2023-03-13T22:01:12.914Z,13.17
2023-03-13T22:03:40.658Z,12.95
2023-03-13T22:06:16.468Z,12.95
2023-03-13T22:08:44.541Z,13.17
2023-03-13T22:11:11.945Z,12.89
2023-03-13T22:13:39.599Z,12.93
2023-03-13T22:16:07.747Z,12.88
2023-03-13T22:18:35.719Z,12.93
2023-03-13T22:21:03.509Z,12.91
2023-03-13T22:23:30.874Z,12.80
2023-03-13T22:25:58.920Z,12.91
2023-03-13T22:28:26.497Z,12.84
2023-03-13T22:30:53.766Z,12.77
2023-03-13T22:33:21.111Z,12.86
2023-03-13T22:35:52.619Z,12.95
2023-03-13T22:38:20.685Z,12.86
2023-03-13T22:40:49.112Z,12.73
2023-03-13T22:43:16.502Z,12.76
2023-03-13T22:45:43.859Z,12.82
2023-03-13T22:48:11.166Z,12.74
2023-03-13T22:50:38.475Z,12.78
2023-03-13T22:53:05.805Z,12.88
2023-03-13T22:55:33.477Z,12.89
2023-03-13T22:58:01.062Z,12.88
2023-03-13T23:00:28.588Z,12.72
2023-03-13T23:02:56.046Z,12.71
2023-03-13T23:05:23.489Z,12.64
2023-03-13T23:07:50.922Z,12.63
2023-03-13T23:10:18.854Z,12.53
2023-03-13T23:12:46.198Z,12.45
2023-03-13T23:15:13.624Z,12.42
2023-03-13T23:17:40.993Z,12.40
2023-03-13T23:20:12.969Z,12.41
2023-03-13T23:22:41.506Z,12.51
2023-03-13T23:25:09.381Z,12.52
2023-03-13T23:27:37.159Z,12.26
2023-03-13T23:30:07.030Z,12.37
2023-03-13T23:32:39.481Z,12.37
2023-03-13T23:35:08.065Z,12.28
2023-03-13T23:37:35.657Z,12.32
2023-03-13T23:40:05.192Z,12.23
2023-03-13T23:42:32.551Z,12.28
2023-03-13T23:45:02.344Z,12.29
2023-03-13T23:47:30.184Z,12.29
2023-03-13T23:49:57.533Z,12.40
2023-03-13T23:52:24.899Z,12.41
2023-03-13T23:54:52.951Z,12.48
2023-03-13T23:57:20.408Z,12.21
2023-03-13T23:59:49.111Z,12.23
